sensor_id;sensor_type;location;lat;lon;timestamp;pressure;altitude;pressure_sealevel;temperature;humidity
67840;BME280;54636;51.684;5.142;2023-12-14T00:01:42;100960.50;;;6.06;100.00
67840;BME280;54636;51.684;5.142;2023-12-14T00:04:08;100977.59;;;6.12;100.00
67840;BME280;54636;51.684;5.142;2023-12-14T00:06:33;100975.47;;;6.07;100.00
67840;BME280;54636;51.684;5.142;2023-12-14T00:08:59;100965.84;;;5.97;100.00
67840;BME280;54636;51.684;5.142;2023-12-14T00:11:24;100991.78;;;6.03;100.00
67840;BME280;54636;51.684;5.142;2023-12-14T00:13:50;101002.56;;;6.03;100.00
67840;BME280;54636;51.684;5.142;2023-12-14T00:16:15;100994.16;;;5.92;100.00
67840;BME280;54636;51.684;5.142;2023-12-14T00:18:41;101017.38;;;5.99;100.00
67840;BME280;54636;51.684;5.142;2023-12-14T00:21:06;101003.88;;;5.89;100.00
67840;BME280;54636;51.684;5.142;2023-12-14T00:23:33;101021.44;;;6.03;100.00
67840;BME280;54636;51.684;5.142;2023-12-14T00:25:59;101029.69;;;6.00;100.00
67840;BME280;54636;51.684;5.142;2023-12-14T00:28:24;101023.00;;;5.82;100.00
67840;BME280;54636;51.684;5.142;2023-12-14T00:30:50;101049.03;;;5.85;100.00
67840;BME280;54636;51.684;5.142;2023-12-14T00:33:15;101039.31;;;5.79;100.00
67840;BME280;54636;51.684;5.142;2023-12-14T00:35:40;101048.44;;;5.81;100.00
67840;BME280;54636;51.684;5.142;2023-12-14T00:38:06;101050.09;;;5.79;100.00
67840;BME280;54636;51.684;5.142;2023-12-14T00:40:31;101040.69;;;5.61;100.00
67840;BME280;54636;51.684;5.142;2023-12-14T00:42:56;101051.09;;;5.72;100.00
67840;BME280;54636;51.684;5.142;2023-12-14T00:45:22;101059.06;;;5.76;100.00
67840;BME280;54636;51.684;5.142;2023-12-14T00:47:47;101062.31;;;5.71;100.00
67840;BME280;54636;51.684;5.142;2023-12-14T00:50:12;101066.63;;;5.68;100.00
67840;BME280;54636;51.684;5.142;2023-12-14T00:52:38;101072.28;;;5.61;100.00
67840;BME280;54636;51.684;5.142;2023-12-14T00:55:03;101067.66;;;5.61;100.00
67840;BME280;54636;51.684;5.142;2023-12-14T00:57:29;101073.59;;;5.56;100.00
67840;BME280;54636;51.684;5.142;2023-12-14T00:59:54;101079.88;;;5.53;100.00
67840;BME280;54636;51.684;5.142;2023-12-14T01:02:20;101086.56;;;5.49;100.00
67840;BME280;54636;51.684;5.142;2023-12-14T01:04:45;101079.91;;;5.41;100.00
67840;BME280;54636;51.684;5.142;2023-12-14T01:07:10;101095.22;;;5.44;100.00
67840;BME280;54636;51.684;5.142;2023-12-14T01:09:36;101100.78;;;5.49;100.00
67840;BME280;54636;51.684;5.142;2023-12-14T01:12:01;101106.41;;;5.42;100.00
67840;BME280;54636;51.684;5.142;2023-12-14T01:14:26;101103.59;;;5.46;100.00
67840;BME280;54636;51.684;5.142;2023-12-14T01:16:52;101112.88;;;5.45;100.00
67840;BME280;54636;51.684;5.142;2023-12-14T01:19:17;101109.00;;;5.46;100.00
67840;BME280;54636;51.684;5.142;2023-12-14T01:21:43;101106.03;;;5.31;100.00
67840;BME280;54636;51.684;5.142;2023-12-14T01:24:08;101103.44;;;5.27;100.00
67840;BME280;54636;51.684;5.142;2023-12-14T01:26:34;101130.97;;;5.44;100.00
67840;BME280;54636;51.684;5.142;2023-12-14T01:28:59;101128.72;;;5.43;100.00
67840;BME280;54636;51.684;5.142;2023-12-14T01:31:25;101124.84;;;5.44;100.00
67840;BME280;54636;51.684;5.142;2023-12-14T01:33:51;101131.09;;;5.41;100.00
67840;BME280;54636;51.684;5.142;2023-12-14T01:36:24;101134.84;;;5.43;100.00
67840;BME280;54636;51.684;5.142;2023-12-14T01:38:50;101137.69;;;5.40;100.00
67840;BME280;54636;51.684;5.142;2023-12-14T01:41:16;101155.47;;;5.37;100.00
67840;BME280;54636;51.684;5.142;2023-12-14T01:43:42;101160.41;;;5.39;100.00
67840;BME280;54636;51.684;5.142;2023-12-14T01:46:08;101175.06;;;5.38;100.00
67840;BME280;54636;51.684;5.142;2023-12-14T01:48:33;101160.00;;;5.27;100.00
67840;BME280;54636;51.684;5.142;2023-12-14T01:50:58;101167.00;;;5.25;100.00
67840;BME280;54636;51.684;5.142;2023-12-14T01:53:24;101179.50;;;5.32;100.00
67840;BME280;54636;51.684;5.142;2023-12-14T01:55:49;101185.31;;;5.30;100.00
67840;BME280;54636;51.684;5.142;2023-12-14T01:58:15;101181.97;;;5.26;100.00
67840;BME280;54636;51.684;5.142;2023-12-14T02:03:20;101201.25;;;5.37;100.00
67840;BME280;54636;51.684;5.142;2023-12-14T02:05:46;101200.59;;;5.33;100.00
67840;BME280;54636;51.684;5.142;2023-12-14T02:08:11;101210.19;;;5.34;100.00
67840;BME280;54636;51.684;5.142;2023-12-14T02:10:36;101211.28;;;5.37;100.00
67840;BME280;54636;51.684;5.142;2023-12-14T02:13:02;101216.44;;;5.31;100.00
67840;BME280;54636;51.684;5.142;2023-12-14T02:15:28;101223.34;;;5.32;100.00
67840;BME280;54636;51.684;5.142;2023-12-14T02:17:53;101220.66;;;5.32;100.00
67840;BME280;54636;51.684;5.142;2023-12-14T02:20:18;101231.75;;;5.34;100.00
67840;BME280;54636;51.684;5.142;2023-12-14T02:22:53;101229.91;;;5.31;100.00
67840;BME280;54636;51.684;5.142;2023-12-14T02:25:20;101240.16;;;5.36;100.00
67840;BME280;54636;51.684;5.142;2023-12-14T02:27:45;101242.84;;;5.36;100.00
67840;BME280;54636;51.684;5.142;2023-12-14T02:30:12;101242.94;;;5.33;100.00
67840;BME280;54636;51.684;5.142;2023-12-14T02:32:38;101243.72;;;5.33;100.00
67840;BME280;54636;51.684;5.142;2023-12-14T02:35:04;101230.13;;;5.24;100.00
67840;BME280;54636;51.684;5.142;2023-12-14T02:37:30;101254.47;;;5.33;100.00
67840;BME280;54636;51.684;5.142;2023-12-14T02:39:55;101249.22;;;5.29;100.00
67840;BME280;54636;51.684;5.142;2023-12-14T02:42:21;101257.28;;;5.29;100.00
67840;BME280;54636;51.684;5.142;2023-12-14T02:44:46;101262.25;;;5.31;100.00
67840;BME280;54636;51.684;5.142;2023-12-14T02:47:12;101267.72;;;5.27;100.00
67840;BME280;54636;51.684;5.142;2023-12-14T02:49:37;101266.97;;;5.27;100.00
67840;BME280;54636;51.684;5.142;2023-12-14T02:52:03;101281.31;;;5.37;100.00
67840;BME280;54636;51.684;5.142;2023-12-14T02:54:28;101266.22;;;5.26;100.00
67840;BME280;54636;51.684;5.142;2023-12-14T02:56:54;101286.25;;;5.38;100.00
67840;BME280;54636;51.684;5.142;2023-12-14T02:59:19;101281.75;;;5.35;100.00
67840;BME280;54636;51.684;5.142;2023-12-14T03:01:44;101289.50;;;5.33;100.00
67840;BME280;54636;51.684;5.142;2023-12-14T03:04:10;101290.34;;;5.30;100.00
67840;BME280;54636;51.684;5.142;2023-12-14T03:06:35;101300.69;;;5.32;100.00
67840;BME280;54636;51.684;5.142;2023-12-14T03:09:00;101303.06;;;5.29;100.00
67840;BME280;54636;51.684;5.142;2023-12-14T03:11:26;101294.16;;;5.20;100.00
67840;BME280;54636;51.684;5.142;2023-12-14T03:13:51;101300.50;;;5.26;100.00
67840;BME280;54636;51.684;5.142;2023-12-14T03:16:18;101311.25;;;5.26;100.00
67840;BME280;54636;51.684;5.142;2023-12-14T03:18:44;101312.88;;;5.23;100.00
67840;BME280;54636;51.684;5.142;2023-12-14T03:21:10;101309.09;;;5.21;100.00
67840;BME280;54636;51.684;5.142;2023-12-14T03:23:35;101310.31;;;5.20;100.00
67840;BME280;54636;51.684;5.142;2023-12-14T03:26:01;101315.13;;;5.25;100.00
67840;BME280;54636;51.684;5.142;2023-12-14T03:28:27;101317.19;;;5.21;100.00
67840;BME280;54636;51.684;5.142;2023-12-14T03:30:52;101297.06;;;5.13;100.00
67840;BME280;54636;51.684;5.142;2023-12-14T03:33:18;101323.53;;;5.27;100.00
67840;BME280;54636;51.684;5.142;2023-12-14T03:35:44;101325.06;;;5.28;100.00
67840;BME280;54636;51.684;5.142;2023-12-14T03:38:13;101324.72;;;5.26;100.00
67840;BME280;54636;51.684;5.142;2023-12-14T03:40:38;101328.19;;;5.26;100.00
67840;BME280;54636;51.684;5.142;2023-12-14T03:43:03;101325.47;;;5.26;100.00
67840;BME280;54636;51.684;5.142;2023-12-14T03:45:29;101318.41;;;5.20;100.00
67840;BME280;54636;51.684;5.142;2023-12-14T03:47:55;101307.91;;;5.22;100.00
67840;BME280;54636;51.684;5.142;2023-12-14T03:50:20;101309.66;;;5.16;100.00
67840;BME280;54636;51.684;5.142;2023-12-14T03:52:45;101325.81;;;5.28;100.00
67840;BME280;54636;51.684;5.142;2023-12-14T03:55:11;101319.78;;;5.24;100.00
67840;BME280;54636;51.684;5.142;2023-12-14T03:57:37;101314.94;;;5.19;100.00
67840;BME280;54636;51.684;5.142;2023-12-14T04:00:02;101315.13;;;5.25;100.00
67840;BME280;54636;51.684;5.142;2023-12-14T04:02:27;101323.13;;;5.16;100.00
67840;BME280;54636;51.684;5.142;2023-12-14T04:04:54;101336.78;;;5.21;100.00
67840;BME280;54636;51.684;5.142;2023-12-14T04:07:19;101341.75;;;5.23;100.00
67840;BME280;54636;51.684;5.142;2023-12-14T04:09:45;101351.75;;;5.22;100.00
67840;BME280;54636;51.684;5.142;2023-12-14T04:12:11;101352.94;;;5.21;100.00
67840;BME280;54636;51.684;5.142;2023-12-14T04:14:36;101359.84;;;5.22;100.00
67840;BME280;54636;51.684;5.142;2023-12-14T04:17:01;101360.28;;;5.21;100.00
67840;BME280;54636;51.684;5.142;2023-12-14T04:19:27;101375.91;;;5.26;100.00
67840;BME280;54636;51.684;5.142;2023-12-14T04:21:52;101374.19;;;5.19;100.00
67840;BME280;54636;51.684;5.142;2023-12-14T04:24:18;101369.56;;;5.20;100.00
67840;BME280;54636;51.684;5.142;2023-12-14T04:26:43;101386.25;;;5.27;100.00
67840;BME280;54636;51.684;5.142;2023-12-14T04:29:09;101385.59;;;5.23;100.00
67840;BME280;54636;51.684;5.142;2023-12-14T04:31:34;101387.09;;;5.24;100.00
67840;BME280;54636;51.684;5.142;2023-12-14T04:34:00;101397.78;;;5.28;100.00
67840;BME280;54636;51.684;5.142;2023-12-14T04:36:25;101406.59;;;5.28;100.00
67840;BME280;54636;51.684;5.142;2023-12-14T04:38:51;101410.47;;;5.27;100.00
67840;BME280;54636;51.684;5.142;2023-12-14T04:41:16;101411.25;;;5.28;100.00
67840;BME280;54636;51.684;5.142;2023-12-14T04:43:42;101414.88;;;5.21;100.00
67840;BME280;54636;51.684;5.142;2023-12-14T04:46:07;101423.19;;;5.27;100.00
67840;BME280;54636;51.684;5.142;2023-12-14T04:48:32;101437.31;;;5.31;100.00
67840;BME280;54636;51.684;5.142;2023-12-14T04:51:01;101431.38;;;5.23;100.00
67840;BME280;54636;51.684;5.142;2023-12-14T04:53:26;101441.53;;;5.32;100.00
67840;BME280;54636;51.684;5.142;2023-12-14T04:55:52;101429.88;;;5.22;100.00
67840;BME280;54636;51.684;5.142;2023-12-14T04:58:17;101451.53;;;5.32;100.00
67840;BME280;54636;51.684;5.142;2023-12-14T05:00:42;101446.16;;;5.32;100.00
67840;BME280;54636;51.684;5.142;2023-12-14T05:03:08;101456.50;;;5.33;100.00
67840;BME280;54636;51.684;5.142;2023-12-14T05:05:34;101452.81;;;5.27;100.00
67840;BME280;54636;51.684;5.142;2023-12-14T05:07:59;101467.59;;;5.35;100.00
67840;BME280;54636;51.684;5.142;2023-12-14T05:10:24;101475.59;;;5.39;100.00
67840;BME280;54636;51.684;5.142;2023-12-14T05:12:50;101463.16;;;5.28;100.00
67840;BME280;54636;51.684;5.142;2023-12-14T05:15:15;101470.28;;;5.35;100.00
67840;BME280;54636;51.684;5.142;2023-12-14T05:17:40;101480.31;;;5.35;100.00
67840;BME280;54636;51.684;5.142;2023-12-14T05:20:09;101484.28;;;5.30;100.00
67840;BME280;54636;51.684;5.142;2023-12-14T05:22:35;101490.19;;;5.25;100.00
67840;BME280;54636;51.684;5.142;2023-12-14T05:25:00;101517.59;;;5.36;100.00
67840;BME280;54636;51.684;5.142;2023-12-14T05:27:26;101520.41;;;5.33;100.00
67840;BME280;54636;51.684;5.142;2023-12-14T05:29:51;101527.19;;;5.37;100.00
67840;BME280;54636;51.684;5.142;2023-12-14T05:32:16;101527.28;;;5.34;100.00
67840;BME280;54636;51.684;5.142;2023-12-14T05:34:42;101531.84;;;5.37;100.00
67840;BME280;54636;51.684;5.142;2023-12-14T05:37:07;101524.28;;;5.32;100.00
67840;BME280;54636;51.684;5.142;2023-12-14T05:39:33;101533.19;;;5.28;100.00
67840;BME280;54636;51.684;5.142;2023-12-14T05:41:58;101540.19;;;5.26;100.00
67840;BME280;54636;51.684;5.142;2023-12-14T05:44:24;101535.31;;;5.21;100.00
67840;BME280;54636;51.684;5.142;2023-12-14T05:46:50;101541.38;;;5.25;100.00
67840;BME280;54636;51.684;5.142;2023-12-14T05:49:15;101540.41;;;5.19;100.00
67840;BME280;54636;51.684;5.142;2023-12-14T05:51:41;101564.00;;;5.27;100.00
67840;BME280;54636;51.684;5.142;2023-12-14T05:54:06;101558.63;;;5.27;100.00
67840;BME280;54636;51.684;5.142;2023-12-14T05:56:32;101564.34;;;5.29;100.00
67840;BME280;54636;51.684;5.142;2023-12-14T05:58:57;101562.50;;;5.26;100.00
67840;BME280;54636;51.684;5.142;2023-12-14T06:01:23;101577.16;;;5.25;100.00
67840;BME280;54636;51.684;5.142;2023-12-14T06:03:49;101569.16;;;5.22;100.00
67840;BME280;54636;51.684;5.142;2023-12-14T06:06:14;101582.63;;;5.22;100.00
67840;BME280;54636;51.684;5.142;2023-12-14T06:08:40;101576.78;;;5.11;100.00
67840;BME280;54636;51.684;5.142;2023-12-14T06:11:06;101584.25;;;5.19;100.00
67840;BME280;54636;51.684;5.142;2023-12-14T06:13:32;101595.44;;;5.18;100.00
67840;BME280;54636;51.684;5.142;2023-12-14T06:15:58;101608.81;;;5.21;100.00
67840;BME280;54636;51.684;5.142;2023-12-14T06:18:23;101601.16;;;5.20;100.00
67840;BME280;54636;51.684;5.142;2023-12-14T06:20:49;101596.28;;;5.15;100.00
67840;BME280;54636;51.684;5.142;2023-12-14T06:23:14;101620.66;;;5.24;100.00
67840;BME280;54636;51.684;5.142;2023-12-14T06:25:40;101621.09;;;5.22;100.00
67840;BME280;54636;51.684;5.142;2023-12-14T06:28:05;101615.16;;;5.15;100.00
67840;BME280;54636;51.684;5.142;2023-12-14T06:30:30;101609.09;;;5.11;100.00
67840;BME280;54636;51.684;5.142;2023-12-14T06:32:56;101614.06;;;5.12;100.00
67840;BME280;54636;51.684;5.142;2023-12-14T06:35:21;101619.94;;;5.07;100.00
67840;BME280;54636;51.684;5.142;2023-12-14T06:37:47;101606.75;;;4.96;100.00
67840;BME280;54636;51.684;5.142;2023-12-14T06:40:12;101629.53;;;5.08;100.00
67840;BME280;54636;51.684;5.142;2023-12-14T06:42:38;101643.75;;;5.09;100.00
67840;BME280;54636;51.684;5.142;2023-12-14T06:45:05;101652.25;;;5.07;100.00
67840;BME280;54636;51.684;5.142;2023-12-14T06:47:30;101655.28;;;5.09;100.00
67840;BME280;54636;51.684;5.142;2023-12-14T06:49:55;101648.97;;;5.00;100.00
67840;BME280;54636;51.684;5.142;2023-12-14T06:52:22;101657.06;;;5.00;100.00
67840;BME280;54636;51.684;5.142;2023-12-14T06:54:48;101668.50;;;5.04;100.00
67840;BME280;54636;51.684;5.142;2023-12-14T06:57:13;101665.56;;;4.98;100.00
67840;BME280;54636;51.684;5.142;2023-12-14T06:59:39;101667.16;;;4.95;100.00
67840;BME280;54636;51.684;5.142;2023-12-14T07:02:04;101683.47;;;5.05;100.00
67840;BME280;54636;51.684;5.142;2023-12-14T07:04:29;101670.59;;;4.96;100.00
67840;BME280;54636;51.684;5.142;2023-12-14T07:06:55;101686.34;;;4.97;100.00
67840;BME280;54636;51.684;5.142;2023-12-14T07:09:20;101688.28;;;4.97;100.00
67840;BME280;54636;51.684;5.142;2023-12-14T07:11:46;101687.25;;;4.91;100.00
67840;BME280;54636;51.684;5.142;2023-12-14T07:14:12;101709.38;;;4.99;100.00
67840;BME280;54636;51.684;5.142;2023-12-14T07:16:40;101711.31;;;4.98;100.00
67840;BME280;54636;51.684;5.142;2023-12-14T07:19:05;101711.75;;;4.96;100.00
67840;BME280;54636;51.684;5.142;2023-12-14T07:21:30;101720.16;;;4.99;100.00
67840;BME280;54636;51.684;5.142;2023-12-14T07:23:56;101717.63;;;4.91;100.00
67840;BME280;54636;51.684;5.142;2023-12-14T07:26:21;101727.56;;;4.94;100.00
67840;BME280;54636;51.684;5.142;2023-12-14T07:28:47;101729.22;;;4.88;100.00
67840;BME280;54636;51.684;5.142;2023-12-14T07:31:12;101739.22;;;4.88;100.00
67840;BME280;54636;51.684;5.142;2023-12-14T07:33:37;101741.59;;;4.86;100.00
67840;BME280;54636;51.684;5.142;2023-12-14T07:36:03;101721.88;;;4.73;100.00
67840;BME280;54636;51.684;5.142;2023-12-14T07:38:30;101742.06;;;4.81;100.00
67840;BME280;54636;51.684;5.142;2023-12-14T07:40:56;101748.91;;;4.85;100.00
67840;BME280;54636;51.684;5.142;2023-12-14T07:43:21;101750.16;;;4.81;100.00
67840;BME280;54636;51.684;5.142;2023-12-14T07:45:48;101753.59;;;4.81;100.00
67840;BME280;54636;51.684;5.142;2023-12-14T07:48:13;101742.56;;;4.76;100.00
67840;BME280;54636;51.684;5.142;2023-12-14T07:50:38;101756.63;;;4.83;100.00
67840;BME280;54636;51.684;5.142;2023-12-14T07:53:04;101751.00;;;4.78;100.00
67840;BME280;54636;51.684;5.142;2023-12-14T07:55:30;101740.03;;;4.69;100.00
67840;BME280;54636;51.684;5.142;2023-12-14T07:57:55;101766.31;;;4.81;100.00
67840;BME280;54636;51.684;5.142;2023-12-14T08:00:21;101762.94;;;4.77;100.00
67840;BME280;54636;51.684;5.142;2023-12-14T08:02:46;101756.16;;;4.69;100.00
67840;BME280;54636;51.684;5.142;2023-12-14T08:05:12;101766.38;;;4.77;100.00
67840;BME280;54636;51.684;5.142;2023-12-14T08:07:37;101765.00;;;4.69;100.00
67840;BME280;54636;51.684;5.142;2023-12-14T08:10:03;101777.56;;;4.76;100.00
67840;BME280;54636;51.684;5.142;2023-12-14T08:12:28;101777.50;;;4.79;100.00
67840;BME280;54636;51.684;5.142;2023-12-14T08:14:54;101779.06;;;4.77;100.00
67840;BME280;54636;51.684;5.142;2023-12-14T08:17:19;101795.50;;;4.82;100.00
67840;BME280;54636;51.684;5.142;2023-12-14T08:19:46;101799.78;;;4.80;100.00
67840;BME280;54636;51.684;5.142;2023-12-14T08:22:11;101790.31;;;4.72;100.00
67840;BME280;54636;51.684;5.142;2023-12-14T08:24:41;101807.84;;;4.80;100.00
67840;BME280;54636;51.684;5.142;2023-12-14T08:27:06;101826.56;;;4.87;100.00
67840;BME280;54636;51.684;5.142;2023-12-14T08:29:32;101814.25;;;4.86;100.00
67840;BME280;54636;51.684;5.142;2023-12-14T08:31:57;101816.41;;;4.94;100.00
67840;BME280;54636;51.684;5.142;2023-12-14T08:34:25;101798.59;;;4.81;100.00
67840;BME280;54636;51.684;5.142;2023-12-14T08:36:50;101820.69;;;4.92;100.00
67840;BME280;54636;51.684;5.142;2023-12-14T08:39:16;101809.78;;;4.79;100.00
67840;BME280;54636;51.684;5.142;2023-12-14T08:41:41;101822.00;;;4.84;100.00
67840;BME280;54636;51.684;5.142;2023-12-14T08:44:07;101832.41;;;4.82;100.00
67840;BME280;54636;51.684;5.142;2023-12-14T08:46:41;101834.41;;;4.78;100.00
67840;BME280;54636;51.684;5.142;2023-12-14T08:49:07;101854.78;;;4.79;100.00
67840;BME280;54636;51.684;5.142;2023-12-14T08:51:32;101857.97;;;4.74;100.00
67840;BME280;54636;51.684;5.142;2023-12-14T08:53:57;101841.25;;;4.62;100.00
67840;BME280;54636;51.684;5.142;2023-12-14T08:56:23;101865.28;;;4.73;100.00
67840;BME280;54636;51.684;5.142;2023-12-14T08:58:48;101871.47;;;4.70;100.00
67840;BME280;54636;51.684;5.142;2023-12-14T09:01:19;101861.31;;;4.58;100.00
67840;BME280;54636;51.684;5.142;2023-12-14T09:03:46;101857.22;;;4.53;100.00
67840;BME280;54636;51.684;5.142;2023-12-14T09:06:11;101881.13;;;4.68;100.00
67840;BME280;54636;51.684;5.142;2023-12-14T09:08:37;101888.44;;;4.67;100.00
67840;BME280;54636;51.684;5.142;2023-12-14T09:11:02;101893.41;;;4.69;100.00
67840;BME280;54636;51.684;5.142;2023-12-14T09:13:27;101899.16;;;4.71;100.00
67840;BME280;54636;51.684;5.142;2023-12-14T09:15:53;101907.28;;;4.67;100.00
67840;BME280;54636;51.684;5.142;2023-12-14T09:18:19;101902.31;;;4.66;100.00
67840;BME280;54636;51.684;5.142;2023-12-14T09:20:46;101919.44;;;4.75;100.00
67840;BME280;54636;51.684;5.142;2023-12-14T09:23:11;101919.09;;;4.73;100.00
67840;BME280;54636;51.684;5.142;2023-12-14T09:25:36;101932.00;;;4.82;100.00
67840;BME280;54636;51.684;5.142;2023-12-14T09:28:02;101934.72;;;4.82;100.00
67840;BME280;54636;51.684;5.142;2023-12-14T09:30:27;101923.72;;;4.73;100.00
67840;BME280;54636;51.684;5.142;2023-12-14T09:32:53;101934.00;;;4.78;100.00
67840;BME280;54636;51.684;5.142;2023-12-14T09:35:18;101946.44;;;4.91;100.00
67840;BME280;54636;51.684;5.142;2023-12-14T09:37:44;101947.34;;;4.85;100.00
67840;BME280;54636;51.684;5.142;2023-12-14T09:40:09;101959.78;;;4.99;100.00
67840;BME280;54636;51.684;5.142;2023-12-14T09:42:38;101962.81;;;5.01;100.00
67840;BME280;54636;51.684;5.142;2023-12-14T09:45:07;101951.28;;;5.00;100.00
67840;BME280;54636;51.684;5.142;2023-12-14T09:47:34;101955.72;;;5.10;100.00
67840;BME280;54636;51.684;5.142;2023-12-14T09:49:59;101972.00;;;5.23;100.00
67840;BME280;54636;51.684;5.142;2023-12-14T09:52:25;101951.78;;;5.15;100.00
67840;BME280;54636;51.684;5.142;2023-12-14T09:54:51;101966.41;;;5.34;100.00
67840;BME280;54636;51.684;5.142;2023-12-14T09:57:18;101971.66;;;5.41;100.00
67840;BME280;54636;51.684;5.142;2023-12-14T09:59:53;101982.00;;;5.62;100.00
67840;BME280;54636;51.684;5.142;2023-12-14T10:02:19;101968.50;;;5.62;100.00
67840;BME280;54636;51.684;5.142;2023-12-14T10:04:48;101990.47;;;5.80;100.00
67840;BME280;54636;51.684;5.142;2023-12-14T10:07:14;101975.53;;;5.76;100.00
67840;BME280;54636;51.684;5.142;2023-12-14T10:09:39;101990.47;;;5.80;100.00
67840;BME280;54636;51.684;5.142;2023-12-14T10:12:08;101996.97;;;5.83;100.00
67840;BME280;54636;51.684;5.142;2023-12-14T10:14:35;101985.22;;;5.73;100.00
67840;BME280;54636;51.684;5.142;2023-12-14T10:17:21;101968.09;;;5.63;100.00
67840;BME280;54636;51.684;5.142;2023-12-14T10:19:49;101993.38;;;5.70;100.00
67840;BME280;54636;51.684;5.142;2023-12-14T10:22:16;101982.22;;;5.51;100.00
67840;BME280;54636;51.684;5.142;2023-12-14T10:24:51;102001.00;;;5.55;100.00
67840;BME280;54636;51.684;5.142;2023-12-14T10:27:17;101997.63;;;5.51;100.00
67840;BME280;54636;51.684;5.142;2023-12-14T10:29:43;101992.38;;;5.44;100.00
67840;BME280;54636;51.684;5.142;2023-12-14T10:32:10;101984.22;;;5.47;100.00
67840;BME280;54636;51.684;5.142;2023-12-14T10:34:37;102008.94;;;5.62;100.00
67840;BME280;54636;51.684;5.142;2023-12-14T10:37:06;102001.53;;;5.66;100.00
67840;BME280;54636;51.684;5.142;2023-12-14T10:39:35;102017.16;;;5.75;100.00
67840;BME280;54636;51.684;5.142;2023-12-14T10:42:05;102013.69;;;5.74;100.00
67840;BME280;54636;51.684;5.142;2023-12-14T10:44:36;102014.53;;;5.71;100.00
67840;BME280;54636;51.684;5.142;2023-12-14T10:47:03;102020.25;;;5.73;100.00
67840;BME280;54636;51.684;5.142;2023-12-14T10:49:33;102024.13;;;5.72;100.00
67840;BME280;54636;51.684;5.142;2023-12-14T10:52:01;102017.78;;;5.62;100.00
67840;BME280;54636;51.684;5.142;2023-12-14T10:54:28;102024.50;;;5.54;100.00
67840;BME280;54636;51.684;5.142;2023-12-14T10:56:56;102027.34;;;5.47;100.00
67840;BME280;54636;51.684;5.142;2023-12-14T10:59:25;102022.50;;;5.39;100.00
67840;BME280;54636;51.684;5.142;2023-12-14T11:01:54;102015.22;;;5.36;100.00
67840;BME280;54636;51.684;5.142;2023-12-14T11:04:23;102032.50;;;5.38;100.00
67840;BME280;54636;51.684;5.142;2023-12-14T11:06:49;102038.66;;;5.39;100.00
67840;BME280;54636;51.684;5.142;2023-12-14T11:09:17;102033.47;;;5.28;100.00
67840;BME280;54636;51.684;5.142;2023-12-14T11:14:19;102043.53;;;5.24;100.00
67840;BME280;54636;51.684;5.142;2023-12-14T11:16:47;102049.69;;;5.24;100.00
67840;BME280;54636;51.684;5.142;2023-12-14T11:22:13;102056.34;;;5.40;100.00
67840;BME280;54636;51.684;5.142;2023-12-14T11:24:55;102055.88;;;5.45;100.00
67840;BME280;54636;51.684;5.142;2023-12-14T11:27:26;102053.59;;;5.43;100.00
67840;BME280;54636;51.684;5.142;2023-12-14T11:29:53;102050.53;;;5.41;100.00
67840;BME280;54636;51.684;5.142;2023-12-14T11:32:18;102051.56;;;5.47;100.00
67840;BME280;54636;51.684;5.142;2023-12-14T11:34:46;102062.63;;;5.53;100.00
67840;BME280;54636;51.684;5.142;2023-12-14T11:37:12;102062.63;;;5.53;100.00
67840;BME280;54636;51.684;5.142;2023-12-14T11:39:38;102058.34;;;5.55;100.00
67840;BME280;54636;51.684;5.142;2023-12-14T11:42:05;102067.34;;;5.69;100.00
67840;BME280;54636;51.684;5.142;2023-12-14T11:44:32;102069.97;;;5.72;100.00
67840;BME280;54636;51.684;5.142;2023-12-14T11:46:57;102068.31;;;5.78;100.00
67840;BME280;54636;51.684;5.142;2023-12-14T11:49:26;102083.84;;;5.90;100.00
67840;BME280;54636;51.684;5.142;2023-12-14T11:51:54;102071.94;;;5.88;100.00
67840;BME280;54636;51.684;5.142;2023-12-14T11:54:20;102056.53;;;5.88;100.00
67840;BME280;54636;51.684;5.142;2023-12-14T11:56:49;102067.47;;;6.01;100.00
67840;BME280;54636;51.684;5.142;2023-12-14T11:59:16;102064.13;;;6.13;100.00
67840;BME280;54636;51.684;5.142;2023-12-14T12:01:56;102066.25;;;6.22;100.00
67840;BME280;54636;51.684;5.142;2023-12-14T12:04:23;102065.56;;;6.18;100.00
67840;BME280;54636;51.684;5.142;2023-12-14T12:06:48;102073.00;;;6.30;100.00
67840;BME280;54636;51.684;5.142;2023-12-14T12:09:32;102077.56;;;6.33;100.00
67840;BME280;54636;51.684;5.142;2023-12-14T12:11:58;102091.41;;;6.35;100.00
67840;BME280;54636;51.684;5.142;2023-12-14T12:14:23;102083.28;;;6.35;100.00
67840;BME280;54636;51.684;5.142;2023-12-14T12:16:49;102086.34;;;6.37;100.00
67840;BME280;54636;51.684;5.142;2023-12-14T12:19:16;102086.00;;;6.35;100.00
67840;BME280;54636;51.684;5.142;2023-12-14T12:21:42;102085.56;;;6.37;100.00
67840;BME280;54636;51.684;5.142;2023-12-14T12:24:07;102088.00;;;6.31;100.00
67840;BME280;54636;51.684;5.142;2023-12-14T12:26:32;102095.28;;;6.34;100.00
67840;BME280;54636;51.684;5.142;2023-12-14T12:28:58;102092.66;;;6.31;100.00
67840;BME280;54636;51.684;5.142;2023-12-14T12:31:23;102095.69;;;6.33;100.00
67840;BME280;54636;51.684;5.142;2023-12-14T12:33:49;102091.72;;;6.37;100.00
67840;BME280;54636;51.684;5.142;2023-12-14T12:36:14;102105.91;;;6.41;100.00
67840;BME280;54636;51.684;5.142;2023-12-14T12:38:40;102100.84;;;6.43;100.00
67840;BME280;54636;51.684;5.142;2023-12-14T12:41:05;102107.44;;;6.42;100.00
67840;BME280;54636;51.684;5.142;2023-12-14T12:43:31;102100.59;;;6.38;100.00
67840;BME280;54636;51.684;5.142;2023-12-14T12:45:56;102115.09;;;6.44;100.00
67840;BME280;54636;51.684;5.142;2023-12-14T12:48:23;102113.59;;;6.43;100.00
67840;BME280;54636;51.684;5.142;2023-12-14T12:50:49;102106.75;;;6.38;100.00
67840;BME280;54636;51.684;5.142;2023-12-14T12:53:14;102109.88;;;6.37;100.00